sensor_id;sensor_type;location;lat;lon;timestamp;P1;durP1;ratioP1;P2;durP2;ratioP2
63900;SDS011;50538;53.482;10.294;2023-02-11T00:01:57;24.15;;;7.70;;
63900;SDS011;50538;53.482;10.294;2023-02-11T00:11:59;17.98;;;6.55;;
63900;SDS011;50538;53.482;10.294;2023-02-11T00:22:00;19.23;;;8.20;;
63900;SDS011;50538;53.482;10.294;2023-02-11T00:32:04;18.98;;;8.00;;
63900;SDS011;50538;53.482;10.294;2023-02-11T00:42:05;21.08;;;8.07;;
63900;SDS011;50538;53.482;10.294;2023-02-11T00:52:06;19.10;;;7.85;;
63900;SDS011;50538;53.482;10.294;2023-02-11T01:02:07;22.63;;;8.35;;
63900;SDS011;50538;53.482;10.294;2023-02-11T01:12:09;21.33;;;7.65;;
63900;SDS011;50538;53.482;10.294;2023-02-11T01:22:10;21.40;;;7.40;;
63900;SDS011;50538;53.482;10.294;2023-02-11T01:32:10;21.42;;;8.95;;
63900;SDS011;50538;53.482;10.294;2023-02-11T01:42:14;19.30;;;7.15;;
63900;SDS011;50538;53.482;10.294;2023-02-11T01:52:21;15.55;;;6.88;;
63900;SDS011;50538;53.482;10.294;2023-02-11T02:02:23;22.00;;;7.07;;
63900;SDS011;50538;53.482;10.294;2023-02-11T02:12:44;23.85;;;8.00;;
63900;SDS011;50538;53.482;10.294;2023-02-11T02:32:56;22.02;;;7.10;;
63900;SDS011;50538;53.482;10.294;2023-02-11T02:43:23;20.70;;;7.95;;
63900;SDS011;50538;53.482;10.294;2023-02-11T02:53:31;25.10;;;7.22;;
63900;SDS011;50538;53.482;10.294;2023-02-11T03:03:53;18.75;;;6.20;;
63900;SDS011;50538;53.482;10.294;2023-02-11T03:14:07;17.05;;;6.57;;
63900;SDS011;50538;53.482;10.294;2023-02-11T03:24:17;12.10;;;4.82;;
63900;SDS011;50538;53.482;10.294;2023-02-11T03:34:47;12.48;;;5.65;;
63900;SDS011;50538;53.482;10.294;2023-02-11T03:44:50;14.93;;;6.32;;
63900;SDS011;50538;53.482;10.294;2023-02-11T03:54:57;13.48;;;5.07;;
63900;SDS011;50538;53.482;10.294;2023-02-11T04:05:01;15.57;;;5.70;;
63900;SDS011;50538;53.482;10.294;2023-02-11T04:15:01;14.38;;;4.72;;
63900;SDS011;50538;53.482;10.294;2023-02-11T04:25:04;17.10;;;6.63;;
63900;SDS011;50538;53.482;10.294;2023-02-11T04:35:06;14.88;;;5.25;;
63900;SDS011;50538;53.482;10.294;2023-02-11T04:45:07;17.73;;;4.82;;
63900;SDS011;50538;53.482;10.294;2023-02-11T04:55:09;14.93;;;6.18;;
63900;SDS011;50538;53.482;10.294;2023-02-11T05:05:10;19.40;;;4.78;;
63900;SDS011;50538;53.482;10.294;2023-02-11T05:15:10;9.63;;;3.70;;
63900;SDS011;50538;53.482;10.294;2023-02-11T05:25:11;13.45;;;4.95;;
63900;SDS011;50538;53.482;10.294;2023-02-11T05:35:11;19.47;;;5.37;;
63900;SDS011;50538;53.482;10.294;2023-02-11T05:45:12;17.63;;;4.78;;
63900;SDS011;50538;53.482;10.294;2023-02-11T05:55:12;16.02;;;4.80;;
63900;SDS011;50538;53.482;10.294;2023-02-11T06:05:12;8.85;;;3.17;;
63900;SDS011;50538;53.482;10.294;2023-02-11T06:15:13;16.08;;;6.32;;
63900;SDS011;50538;53.482;10.294;2023-02-11T06:25:13;17.23;;;5.45;;
63900;SDS011;50538;53.482;10.294;2023-02-11T06:35:14;8.45;;;3.25;;
63900;SDS011;50538;53.482;10.294;2023-02-11T06:45:15;12.07;;;3.92;;
63900;SDS011;50538;53.482;10.294;2023-02-11T06:55:15;10.98;;;3.65;;
63900;SDS011;50538;53.482;10.294;2023-02-11T07:05:16;10.05;;;3.85;;
63900;SDS011;50538;53.482;10.294;2023-02-11T07:15:18;6.82;;;2.55;;
63900;SDS011;50538;53.482;10.294;2023-02-11T07:25:21;13.07;;;3.50;;
63900;SDS011;50538;53.482;10.294;2023-02-11T07:35:22;7.60;;;3.25;;
63900;SDS011;50538;53.482;10.294;2023-02-11T07:45:23;9.93;;;3.30;;
63900;SDS011;50538;53.482;10.294;2023-02-11T07:55:24;9.20;;;2.80;;
63900;SDS011;50538;53.482;10.294;2023-02-11T08:05:25;7.72;;;3.25;;
63900;SDS011;50538;53.482;10.294;2023-02-11T08:15:33;8.05;;;2.97;;
63900;SDS011;50538;53.482;10.294;2023-02-11T08:25:35;9.98;;;3.30;;
63900;SDS011;50538;53.482;10.294;2023-02-11T08:35:35;7.07;;;3.40;;
63900;SDS011;50538;53.482;10.294;2023-02-11T08:45:41;8.88;;;3.45;;
63900;SDS011;50538;53.482;10.294;2023-02-11T08:55:49;17.38;;;4.13;;
63900;SDS011;50538;53.482;10.294;2023-02-11T09:05:54;10.70;;;4.80;;
63900;SDS011;50538;53.482;10.294;2023-02-11T09:15:56;15.50;;;5.90;;
63900;SDS011;50538;53.482;10.294;2023-02-11T09:26:05;11.02;;;5.00;;
63900;SDS011;50538;53.482;10.294;2023-02-11T09:36:17;14.30;;;3.70;;
63900;SDS011;50538;53.482;10.294;2023-02-11T09:46:24;9.90;;;4.30;;
63900;SDS011;50538;53.482;10.294;2023-02-11T09:56:30;14.15;;;5.22;;
63900;SDS011;50538;53.482;10.294;2023-02-11T10:06:46;13.85;;;5.45;;
63900;SDS011;50538;53.482;10.294;2023-02-11T10:27:19;7.78;;;3.75;;
63900;SDS011;50538;53.482;10.294;2023-02-11T10:37:23;10.52;;;4.07;;
63900;SDS011;50538;53.482;10.294;2023-02-11T10:47:26;12.00;;;3.70;;
63900;SDS011;50538;53.482;10.294;2023-02-11T10:57:39;9.48;;;2.40;;
63900;SDS011;50538;53.482;10.294;2023-02-11T11:07:53;14.50;;;4.28;;
63900;SDS011;50538;53.482;10.294;2023-02-11T11:18:17;5.82;;;2.83;;
63900;SDS011;50538;53.482;10.294;2023-02-11T11:28:19;4.97;;;2.17;;
63900;SDS011;50538;53.482;10.294;2023-02-11T11:38:28;8.98;;;2.80;;
63900;SDS011;50538;53.482;10.294;2023-02-11T11:58:41;6.07;;;2.25;;
63900;SDS011;50538;53.482;10.294;2023-02-11T12:40:35;6.30;;;2.10;;
63900;SDS011;50538;53.482;10.294;2023-02-11T13:01:23;5.07;;;2.30;;
63900;SDS011;50538;53.482;10.294;2023-02-11T13:11:38;7.68;;;2.45;;
63900;SDS011;50538;53.482;10.294;2023-02-11T13:21:45;4.32;;;1.92;;
63900;SDS011;50538;53.482;10.294;2023-02-11T13:31:55;7.22;;;3.08;;
63900;SDS011;50538;53.482;10.294;2023-02-11T13:42:10;4.07;;;1.95;;
63900;SDS011;50538;53.482;10.294;2023-02-11T13:52:32;10.45;;;2.58;;
63900;SDS011;50538;53.482;10.294;2023-02-11T14:23:49;6.63;;;2.78;;
63900;SDS011;50538;53.482;10.294;2023-02-11T14:34:02;10.10;;;2.88;;
63900;SDS011;50538;53.482;10.294;2023-02-11T14:44:29;10.80;;;2.37;;
63900;SDS011;50538;53.482;10.294;2023-02-11T14:54:32;5.60;;;2.03;;
63900;SDS011;50538;53.482;10.294;2023-02-11T15:04:34;5.45;;;2.30;;
63900;SDS011;50538;53.482;10.294;2023-02-11T15:14:35;4.05;;;1.90;;
63900;SDS011;50538;53.482;10.294;2023-02-11T15:24:36;6.47;;;1.30;;
63900;SDS011;50538;53.482;10.294;2023-02-11T15:34:38;1.88;;;0.95;;
63900;SDS011;50538;53.482;10.294;2023-02-11T15:44:40;3.65;;;1.15;;
63900;SDS011;50538;53.482;10.294;2023-02-11T15:54:44;4.07;;;1.00;;
63900;SDS011;50538;53.482;10.294;2023-02-11T16:04:51;5.95;;;1.15;;
63900;SDS011;50538;53.482;10.294;2023-02-11T16:14:54;9.07;;;1.50;;
63900;SDS011;50538;53.482;10.294;2023-02-11T16:25:04;3.15;;;1.08;;
63900;SDS011;50538;53.482;10.294;2023-02-11T16:35:09;7.72;;;1.55;;
63900;SDS011;50538;53.482;10.294;2023-02-11T16:56:06;5.05;;;1.83;;
63900;SDS011;50538;53.482;10.294;2023-02-11T17:06:21;4.50;;;1.17;;
63900;SDS011;50538;53.482;10.294;2023-02-11T17:16:39;5.63;;;1.58;;
63900;SDS011;50538;53.482;10.294;2023-02-11T17:26:51;9.60;;;1.60;;
63900;SDS011;50538;53.482;10.294;2023-02-11T17:37:01;2.90;;;1.55;;
63900;SDS011;50538;53.482;10.294;2023-02-11T17:47:15;4.80;;;1.55;;
63900;SDS011;50538;53.482;10.294;2023-02-11T17:57:15;4.68;;;1.20;;
63900;SDS011;50538;53.482;10.294;2023-02-11T18:07:16;6.37;;;2.00;;
63900;SDS011;50538;53.482;10.294;2023-02-11T18:17:20;16.38;;;2.67;;
63900;SDS011;50538;53.482;10.294;2023-02-11T18:27:32;8.50;;;2.67;;
63900;SDS011;50538;53.482;10.294;2023-02-11T18:37:43;8.23;;;2.70;;
63900;SDS011;50538;53.482;10.294;2023-02-11T18:47:51;7.07;;;2.20;;
63900;SDS011;50538;53.482;10.294;2023-02-11T18:57:52;10.75;;;2.80;;
63900;SDS011;50538;53.482;10.294;2023-02-11T19:07:58;6.93;;;3.15;;
63900;SDS011;50538;53.482;10.294;2023-02-11T19:18:02;8.27;;;2.70;;
63900;SDS011;50538;53.482;10.294;2023-02-11T19:28:13;6.72;;;2.30;;
63900;SDS011;50538;53.482;10.294;2023-02-11T19:38:14;12.95;;;2.42;;
63900;SDS011;50538;53.482;10.294;2023-02-11T19:48:18;9.02;;;2.70;;
63900;SDS011;50538;53.482;10.294;2023-02-11T19:58:25;8.02;;;2.33;;
63900;SDS011;50538;53.482;10.294;2023-02-11T20:08:49;8.77;;;2.55;;
63900;SDS011;50538;53.482;10.294;2023-02-11T20:19:03;6.22;;;2.20;;
63900;SDS011;50538;53.482;10.294;2023-02-11T20:29:14;7.32;;;2.20;;
63900;SDS011;50538;53.482;10.294;2023-02-11T20:39:38;8.15;;;2.22;;
63900;SDS011;50538;53.482;10.294;2023-02-11T20:50:11;4.00;;;2.03;;
63900;SDS011;50538;53.482;10.294;2023-02-11T21:00:22;6.90;;;2.05;;
63900;SDS011;50538;53.482;10.294;2023-02-11T22:26:18;7.53;;;2.58;;
63900;SDS011;50538;53.482;10.294;2023-02-11T22:37:17;9.30;;;2.85;;
63900;SDS011;50538;53.482;10.294;2023-02-11T22:47:34;11.07;;;3.55;;
63900;SDS011;50538;53.482;10.294;2023-02-11T22:57:48;7.68;;;2.42;;
63900;SDS011;50538;53.482;10.294;2023-02-11T23:07:54;6.30;;;1.70;;
63900;SDS011;50538;53.482;10.294;2023-02-11T23:40:14;9.32;;;3.03;;
